Time;durP1;ratioP1;P1;durP2;ratioP2;P2;SDS_P1;SDS_P2;PMS_P1;PMS_P2;Temp;Humidity;BMP_temperature;BMP_pressure;BME280_temperature;BME280_humidity;BME280_pressure;Samples;Min_cycle;Max_cycle;Signal;HPM_P1;HPM_P2
2021/11/29 00:00:15;;;;;;;24.38;17.92;;;3.70;99.90;;;;;;5035522;28;20229;-80
2021/11/29 00:02:45;;;;;;;24.58;16.77;;;3.70;99.90;;;;;;5035287;28;20253;-80
2021/11/29 00:05:12;;;;;;;22.15;16.20;;;3.70;99.90;;;;;;5035325;28;20654;-80
2021/11/29 00:07:39;;;;;;;22.90;16.77;;;3.70;99.90;;;;;;5034857;28;20277;-80
2021/11/29 00:10:06;;;;;;;26.77;18.05;;;3.70;99.90;;;;;;5035191;28;20226;-80
2021/11/29 00:12:32;;;;;;;26.20;16.80;;;3.70;99.90;;;;;;5034702;28;20197;-80
2021/11/29 00:15:01;;;;;;;23.52;16.73;;;3.70;99.90;;;;;;5034997;28;20248;-80
2021/11/29 00:17:27;;;;;;;24.17;17.30;;;3.70;99.90;;;;;;5034991;28;20578;-80
2021/11/29 00:19:54;;;;;;;23.25;16.02;;;3.80;99.90;;;;;;5035078;28;20283;-80
2021/11/29 00:22:20;;;;;;;22.40;16.75;;;3.80;99.90;;;;;;5034727;28;20225;-80
2021/11/29 00:24:47;;;;;;;24.02;17.45;;;3.80;99.90;;;;;;5034699;28;20281;-80
2021/11/29 00:27:13;;;;;;;24.00;18.00;;;3.80;99.90;;;;;;5034921;28;20277;-79
2021/11/29 00:29:42;;;;;;;26.15;19.10;;;3.80;99.90;;;;;;5034690;28;20282;-82
2021/11/29 00:32:10;;;;;;;24.92;18.65;;;3.80;99.90;;;;;;5034580;28;20650;-82
2021/11/29 00:34:37;;;;;;;23.42;16.85;;;3.80;99.90;;;;;;5034854;28;20222;-82
2021/11/29 00:37:03;;;;;;;27.20;19.15;;;3.80;99.90;;;;;;5037535;28;20284;-82
2021/11/29 00:39:31;;;;;;;33.95;20.65;;;3.80;99.90;;;;;;5054353;28;20224;-82
2021/11/29 00:41:58;;;;;;;29.15;18.33;;;3.90;99.90;;;;;;5053611;28;20217;-82
2021/11/29 00:44:26;;;;;;;27.40;20.90;;;3.80;99.90;;;;;;5047161;28;20285;-82
2021/11/29 00:46:53;;;;;;;27.02;18.77;;;3.80;99.90;;;;;;5054389;28;20194;-82
2021/11/29 00:49:21;;;;;;;24.80;18.75;;;3.80;99.90;;;;;;5054421;28;20602;-82
2021/11/29 00:51:47;;;;;;;29.45;18.45;;;3.80;99.90;;;;;;5054288;28;20285;-83
2021/11/29 00:54:14;;;;;;;24.10;17.30;;;3.80;99.90;;;;;;5054261;28;20281;-82
2021/11/29 00:56:41;;;;;;;26.20;18.10;;;3.80;99.90;;;;;;5054025;28;20253;-83
2021/11/29 00:59:08;;;;;;;22.17;17.02;;;3.70;99.90;;;;;;5053918;28;20612;-82
2021/11/29 01:01:35;;;;;;;22.80;16.60;;;3.70;99.90;;;;;;5054131;28;20691;-82
2021/11/29 01:04:02;;;;;;;21.50;15.77;;;3.80;99.90;;;;;;5054136;28;20233;-82
2021/11/29 01:06:30;;;;;;;28.45;17.30;;;3.80;99.90;;;;;;5053981;28;20213;-82
2021/11/29 01:08:56;;;;;;;22.95;16.15;;;3.80;99.90;;;;;;5053803;28;20284;-82
2021/11/29 01:11:23;;;;;;;19.73;15.25;;;3.80;99.90;;;;;;5053827;28;20280;-83
2021/11/29 01:13:49;;;;;;;26.67;16.58;;;3.80;99.90;;;;;;5053700;28;20230;-83
2021/11/29 01:16:16;;;;;;;21.73;16.38;;;3.90;99.90;;;;;;5053957;28;20616;-84
2021/11/29 01:18:42;;;;;;;22.70;16.02;;;3.80;99.90;;;;;;5053959;28;20230;-84
2021/11/29 01:21:09;;;;;;;20.42;16.05;;;3.80;99.90;;;;;;5053959;28;20285;-84
2021/11/29 01:23:37;;;;;;;23.77;17.65;;;3.80;99.90;;;;;;5053948;28;20717;-84
2021/11/29 01:26:04;;;;;;;20.27;15.98;;;3.80;99.90;;;;;;5053843;28;20343;-84
2021/11/29 01:28:30;;;;;;;21.40;16.23;;;3.80;99.90;;;;;;5053617;28;20604;-84
2021/11/29 01:30:57;;;;;;;21.08;16.55;;;3.80;99.90;;;;;;5053969;28;20281;-84
2021/11/29 01:33:23;;;;;;;22.95;16.67;;;3.80;99.90;;;;;;5053795;28;20228;-84
2021/11/29 01:35:50;;;;;;;25.40;18.75;;;3.90;99.90;;;;;;5054461;28;20627;-84
2021/11/29 01:38:17;;;;;;;24.55;18.05;;;3.90;99.90;;;;;;5053782;28;20526;-84
2021/11/29 01:40:45;;;;;;;22.65;16.30;;;4.00;99.90;;;;;;5053361;28;20277;-80
2021/11/29 01:43:14;;;;;;;22.42;16.08;;;3.90;99.90;;;;;;5043753;28;20210;-80
2021/11/29 01:45:43;;;;;;;22.88;16.20;;;3.90;99.90;;;;;;5033212;28;20230;-80
2021/11/29 01:48:10;;;;;;;20.35;16.17;;;4.00;99.90;;;;;;5033285;28;20546;-80
2021/11/29 01:50:39;;;;;;;24.88;17.75;;;4.00;99.90;;;;;;5032986;28;20285;-80
2021/11/29 01:53:07;;;;;;;27.90;17.77;;;4.00;99.90;;;;;;5032709;28;20278;-80
2021/11/29 01:55:35;;;;;;;23.38;16.08;;;4.00;99.90;;;;;;5032682;28;20305;-79
2021/11/29 01:58:04;;;;;;;24.00;16.25;;;4.00;99.90;;;;;;5033085;28;20233;-80
2021/11/29 02:00:33;;;;;;;24.33;17.10;;;4.00;99.90;;;;;;5033010;28;20289;-80
2021/11/29 02:02:59;;;;;;;25.23;17.35;;;4.00;99.90;;;;;;5032908;28;20555;-80
2021/11/29 02:05:27;;;;;;;24.45;17.30;;;4.00;99.90;;;;;;5032721;28;20702;-80
2021/11/29 02:07:54;;;;;;;24.50;16.10;;;4.10;99.90;;;;;;5032817;28;20226;-80
2021/11/29 02:10:23;;;;;;;21.08;15.48;;;4.00;99.90;;;;;;5032697;28;20190;-80
2021/11/29 02:12:50;;;;;;;19.92;14.98;;;4.00;99.90;;;;;;5032936;28;20277;-79
2021/11/29 02:15:19;;;;;;;23.77;16.95;;;4.10;99.90;;;;;;5032839;28;20622;-80
2021/11/29 02:17:46;;;;;;;25.77;17.08;;;4.10;99.90;;;;;;5032822;28;20301;-80
2021/11/29 02:20:15;;;;;;;22.33;14.65;;;4.10;99.90;;;;;;5032574;28;20709;-80
2021/11/29 02:22:44;;;;;;;32.83;19.30;;;4.10;99.90;;;;;;5032445;28;20214;-80
2021/11/29 02:25:11;;;;;;;28.65;18.77;;;4.10;99.90;;;;;;5032701;28;20348;-77
2021/11/29 02:27:40;;;;;;;31.30;18.60;;;4.00;99.90;;;;;;5032742;28;20191;-77
2021/11/29 02:30:08;;;;;;;32.08;19.77;;;4.00;99.90;;;;;;5032706;28;20274;-77
2021/11/29 02:32:34;;;;;;;27.50;18.52;;;4.10;99.90;;;;;;5032683;28;20281;-77
2021/11/29 02:35:01;;;;;;;32.03;19.40;;;4.10;99.90;;;;;;5032542;28;20290;-77
2021/11/29 02:37:28;;;;;;;29.10;18.83;;;4.10;99.90;;;;;;5032608;28;20273;-77
2021/11/29 02:39:57;;;;;;;35.22;21.15;;;4.10;99.90;;;;;;5032508;28;20285;-77
2021/11/29 02:42:24;;;;;;;30.48;19.35;;;4.10;99.90;;;;;;5032548;28;20198;-77
2021/11/29 02:44:51;;;;;;;33.45;20.38;;;4.10;99.90;;;;;;5032532;28;20729;-77
2021/11/29 02:47:17;;;;;;;34.25;20.60;;;4.00;99.90;;;;;;5032717;28;20733;-77
2021/11/29 02:49:44;;;;;;;35.55;20.10;;;4.10;99.90;;;;;;5032411;28;20286;-77
2021/11/29 02:52:13;;;;;;;34.60;21.02;;;4.10;99.90;;;;;;5032438;28;20733;-77
2021/11/29 02:54:43;;;;;;;34.45;20.65;;;4.10;99.90;;;;;;5032365;28;20226;-77
2021/11/29 02:57:15;;;;;;;34.03;18.73;;;4.10;99.90;;;;;;5032652;28;20282;-77
2021/11/29 02:59:42;;;;;;;45.45;21.48;;;4.10;99.90;;;;;;5032547;28;20281;-77
2021/11/29 03:02:11;;;;;;;40.28;22.60;;;4.10;99.90;;;;;;5032313;28;20289;-77
2021/11/29 03:04:39;;;;;;;34.58;21.00;;;4.10;99.90;;;;;;5032347;28;20317;-77
2021/11/29 03:07:07;;;;;;;36.85;21.85;;;4.10;99.90;;;;;;5036037;28;20190;-77
2021/11/29 03:09:35;;;;;;;38.80;20.95;;;4.10;99.90;;;;;;5035787;28;20286;-77
2021/11/29 03:12:01;;;;;;;37.17;19.73;;;4.00;99.90;;;;;;5035914;28;20281;-77
2021/11/29 03:14:30;;;;;;;33.40;17.60;;;4.00;99.90;;;;;;5035901;28;20624;-77
2021/11/29 03:16:58;;;;;;;30.08;17.73;;;4.00;99.90;;;;;;5035470;28;20226;-76
2021/11/29 03:19:30;;;;;;;31.90;18.02;;;4.00;99.90;;;;;;5036063;28;20281;-76
2021/11/29 03:21:57;;;;;;;27.98;15.80;;;4.00;99.90;;;;;;5035632;28;20554;-76
2021/11/29 03:24:23;;;;;;;31.63;17.30;;;3.90;99.90;;;;;;5035669;28;20257;-76
2021/11/29 03:26:50;;;;;;;25.55;14.32;;;3.90;99.90;;;;;;5035513;28;20281;-77
2021/11/29 03:29:18;;;;;;;24.65;15.38;;;3.80;99.90;;;;;;5035597;28;20252;-76
2021/11/29 03:31:50;;;;;;;26.73;15.80;;;3.80;99.90;;;;;;5035325;28;20286;-77
2021/11/29 03:34:17;;;;;;;28.20;15.32;;;3.70;99.90;;;;;;5035533;28;20593;-76
2021/11/29 03:36:47;;;;;;;27.05;15.32;;;3.80;99.90;;;;;;5035237;28;20285;-79
2021/11/29 03:39:15;;;;;;;26.25;14.20;;;3.70;99.90;;;;;;5035316;28;20226;-80
2021/11/29 03:41:43;;;;;;;27.20;14.85;;;3.70;99.90;;;;;;5035071;28;20642;-80
2021/11/29 03:44:11;;;;;;;29.65;15.77;;;3.70;99.90;;;;;;5035219;28;20305;-80
2021/11/29 03:46:38;;;;;;;23.92;14.60;;;3.70;99.90;;;;;;5035182;28;20305;-79
2021/11/29 03:49:06;;;;;;;26.25;14.20;;;3.70;99.90;;;;;;5035429;28;20282;-80
2021/11/29 03:51:33;;;;;;;28.08;15.20;;;3.80;99.90;;;;;;5035158;28;20281;-80
2021/11/29 03:54:00;;;;;;;27.65;15.02;;;3.80;99.90;;;;;;5035066;28;20278;-80
2021/11/29 03:56:26;;;;;;;21.33;13.95;;;3.80;99.90;;;;;;5034734;28;20253;-80
2021/11/29 03:58:54;;;;;;;23.67;14.63;;;3.80;99.90;;;;;;5035145;28;20249;-79
2021/11/29 04:01:21;;;;;;;26.90;14.70;;;3.70;99.90;;;;;;5034910;28;20277;-80
2021/11/29 04:03:47;;;;;;;27.73;14.05;;;3.70;99.90;;;;;;5034874;28;20261;-80
2021/11/29 04:06:15;;;;;;;25.25;15.30;;;3.70;99.90;;;;;;5034752;28;20621;-80
2021/11/29 04:08:42;;;;;;;25.10;14.40;;;3.70;99.90;;;;;;5034809;28;20277;-80
2021/11/29 04:11:08;;;;;;;25.08;14.30;;;3.80;99.90;;;;;;5034552;28;20278;-79
2021/11/29 04:13:35;;;;;;;32.83;15.85;;;3.70;99.90;;;;;;5034988;28;20221;-79
2021/11/29 04:16:02;;;;;;;26.25;15.88;;;3.80;99.90;;;;;;5034659;28;20225;-80
2021/11/29 04:18:28;;;;;;;31.27;14.88;;;3.80;99.90;;;;;;5034788;28;20241;-79
2021/11/29 04:20:56;;;;;;;31.42;17.23;;;3.80;99.90;;;;;;5034400;28;20229;-80
2021/11/29 04:23:24;;;;;;;31.13;18.42;;;3.90;99.90;;;;;;5034632;28;20305;-80
2021/11/29 04:25:54;;;;;;;31.95;17.33;;;3.90;99.90;;;;;;5034251;28;20222;-80
2021/11/29 04:28:21;;;;;;;30.27;16.80;;;3.90;99.90;;;;;;5034435;28;20190;-81
2021/11/29 04:30:47;;;;;;;30.95;15.57;;;3.90;99.90;;;;;;5034214;28;20226;-80
2021/11/29 04:33:14;;;;;;;34.85;16.98;;;3.90;99.90;;;;;;5034319;28;20198;-79
2021/11/29 04:35:41;;;;;;;31.80;16.30;;;4.00;99.90;;;;;;5034258;28;20227;-80
2021/11/29 04:38:07;;;;;;;36.28;18.02;;;4.00;99.90;;;;;;5034179;28;20225;-79
2021/11/29 04:40:35;;;;;;;39.40;18.80;;;3.90;99.90;;;;;;5033838;28;20198;-79
2021/11/29 04:43:02;;;;;;;38.85;19.40;;;3.90;99.90;;;;;;5034097;28;20214;-80
2021/11/29 04:45:29;;;;;;;37.92;20.55;;;3.90;99.90;;;;;;5034056;28;20253;-80
2021/11/29 04:47:56;;;;;;;38.17;18.98;;;4.00;99.90;;;;;;5033920;28;20286;-80
2021/11/29 04:50:22;;;;;;;39.72;20.98;;;3.90;99.90;;;;;;5034196;28;20614;-82
2021/11/29 04:52:49;;;;;;;41.20;21.33;;;4.00;99.90;;;;;;5033928;28;20705;-77
2021/11/29 04:55:15;;;;;;;38.55;20.35;;;3.90;99.90;;;;;;5033863;28;20313;-77
2021/11/29 04:57:43;;;;;;;36.25;19.13;;;4.00;99.90;;;;;;5033879;28;20222;-78
2021/11/29 05:00:14;;;;;;;39.10;20.38;;;4.00;99.90;;;;;;5033946;28;20307;-78
2021/11/29 05:02:41;;;;;;;46.00;21.80;;;3.90;99.90;;;;;;5033561;28;20277;-79
2021/11/29 05:05:08;;;;;;;40.17;21.20;;;3.90;99.90;;;;;;5033539;28;20693;-79
2021/11/29 05:07:35;;;;;;;37.58;21.17;;;4.00;99.90;;;;;;5033272;28;20277;-78
2021/11/29 05:10:01;;;;;;;40.45;20.25;;;4.00;99.90;;;;;;5033401;28;20197;-78
2021/11/29 05:12:29;;;;;;;44.22;20.40;;;3.90;99.90;;;;;;5033662;28;20630;-78
2021/11/29 05:14:56;;;;;;;43.78;20.42;;;3.90;99.90;;;;;;5033621;28;20559;-77
2021/11/29 05:17:23;;;;;;;46.75;21.92;;;3.90;99.90;;;;;;5033410;28;20193;-77
2021/11/29 05:19:50;;;;;;;46.10;22.10;;;3.90;99.90;;;;;;5033368;28;20655;-77
2021/11/29 05:22:17;;;;;;;47.03;20.80;;;3.90;99.90;;;;;;5033445;28;20248;-76
2021/11/29 05:24:43;;;;;;;45.53;23.48;;;3.90;99.90;;;;;;5033096;28;20470;-77
2021/11/29 05:27:10;;;;;;;39.90;21.23;;;4.00;99.90;;;;;;5032613;28;20270;-77
2021/11/29 05:29:36;;;;;;;42.78;22.58;;;4.00;99.90;;;;;;5033255;28;20281;-77
2021/11/29 05:32:06;;;;;;;48.17;21.98;;;4.00;99.90;;;;;;5033330;28;20282;-77
2021/11/29 05:34:32;;;;;;;47.00;21.33;;;4.00;99.90;;;;;;5033174;28;20274;-77
2021/11/29 05:36:59;;;;;;;44.08;22.90;;;4.00;99.90;;;;;;5033256;28;20706;-77
2021/11/29 05:39:25;;;;;;;43.92;22.63;;;4.00;99.90;;;;;;5033422;28;20226;-77
2021/11/29 05:41:52;;;;;;;42.70;21.90;;;4.00;99.90;;;;;;5033248;28;20286;-78
2021/11/29 05:44:19;;;;;;;51.20;22.95;;;4.10;99.90;;;;;;5032823;28;20272;-77
2021/11/29 05:46:46;;;;;;;45.25;22.15;;;4.10;99.90;;;;;;5033081;28;20229;-77
2021/11/29 05:49:14;;;;;;;44.97;22.60;;;4.10;99.90;;;;;;5032951;28;20197;-77
2021/11/29 05:51:41;;;;;;;41.53;21.58;;;4.10;99.90;;;;;;5033226;28;20222;-77
2021/11/29 05:54:08;;;;;;;42.60;20.83;;;4.10;99.90;;;;;;5033214;28;20195;-77
2021/11/29 05:56:34;;;;;;;45.33;21.98;;;4.10;99.90;;;;;;5032736;28;20272;-77
2021/11/29 05:59:01;;;;;;;40.30;21.65;;;4.10;99.90;;;;;;5033000;28;20717;-77
2021/11/29 06:01:27;;;;;;;37.55;21.55;;;4.10;99.90;;;;;;5032787;28;20217;-77
2021/11/29 06:03:54;;;;;;;41.70;20.30;;;4.10;99.90;;;;;;5032747;28;20635;-77
2021/11/29 06:06:22;;;;;;;40.28;22.55;;;4.10;99.90;;;;;;5032877;28;20273;-77
2021/11/29 06:08:48;;;;;;;37.75;20.65;;;4.10;99.90;;;;;;5032854;28;20205;-77
2021/11/29 06:11:15;;;;;;;42.22;21.52;;;4.10;99.90;;;;;;5033050;28;20195;-77
2021/11/29 06:13:41;;;;;;;40.05;21.33;;;4.10;99.90;;;;;;5032714;28;20702;-77
2021/11/29 06:16:08;;;;;;;45.22;22.83;;;4.10;99.90;;;;;;5033037;28;20237;-77
2021/11/29 06:18:35;;;;;;;43.08;21.10;;;4.10;99.90;;;;;;5032865;28;20240;-77
2021/11/29 06:21:01;;;;;;;39.33;21.15;;;4.20;99.90;;;;;;5032900;28;20277;-77
2021/11/29 06:23:31;;;;;;;43.40;21.80;;;4.10;99.90;;;;;;5032638;28;20274;-77
2021/11/29 06:25:58;;;;;;;47.38;21.65;;;4.10;99.90;;;;;;5032710;28;20191;-77
2021/11/29 06:28:24;;;;;;;39.72;21.42;;;4.20;99.90;;;;;;5032714;28;20717;-77
2021/11/29 06:30:51;;;;;;;42.17;21.75;;;4.10;99.90;;;;;;5032665;28;20233;-77
2021/11/29 06:33:17;;;;;;;44.10;23.40;;;4.10;99.90;;;;;;5032804;28;20281;-77
2021/11/29 06:35:45;;;;;;;38.03;21.58;;;4.20;99.90;;;;;;5032726;28;20202;-77
2021/11/29 06:38:13;;;;;;;47.13;23.95;;;4.10;99.90;;;;;;5032648;28;20273;-77
2021/11/29 06:40:47;;;;;;;43.30;22.48;;;4.20;99.90;;;;;;5034437;28;20325;-77
2021/11/29 06:43:14;;;;;;;39.28;21.23;;;4.20;99.90;;;;;;5036203;28;20188;-77
2021/11/29 06:45:40;;;;;;;40.65;20.77;;;4.20;99.90;;;;;;5036483;28;20218;-77
2021/11/29 06:48:07;;;;;;;38.22;21.48;;;4.20;99.90;;;;;;5036432;28;20281;-77
2021/11/29 06:50:34;;;;;;;41.13;21.67;;;4.20;99.90;;;;;;5036278;28;20792;-77
2021/11/29 06:53:00;;;;;;;40.13;21.95;;;4.20;99.90;;;;;;5036189;28;20273;-77
2021/11/29 06:55:27;;;;;;;37.10;21.15;;;4.20;99.90;;;;;;5036007;28;20254;-77
2021/11/29 06:57:55;;;;;;;45.53;21.98;;;4.20;99.90;;;;;;5035893;28;20194;-77
2021/11/29 07:00:23;;;;;;;38.90;20.42;;;4.20;99.90;;;;;;5036180;28;20734;-77
2021/11/29 07:02:50;;;;;;;37.90;20.38;;;4.30;99.90;;;;;;5035822;28;20187;-77
2021/11/29 07:05:17;;;;;;;46.08;21.70;;;4.30;99.90;;;;;;5035855;28;20337;-77
2021/11/29 07:07:46;;;;;;;39.28;21.75;;;4.30;99.90;;;;;;5036028;28;20685;-77
2021/11/29 07:10:13;;;;;;;34.28;19.77;;;4.30;99.90;;;;;;5035950;28;20186;-77
2021/11/29 07:12:41;;;;;;;32.58;19.40;;;4.20;99.90;;;;;;5035762;28;20281;-77
2021/11/29 07:15:10;;;;;;;34.10;19.92;;;4.20;99.90;;;;;;5036068;28;20285;-77
2021/11/29 07:17:37;;;;;;;35.67;20.58;;;4.20;99.90;;;;;;5035997;28;20222;-77
2021/11/29 07:20:04;;;;;;;37.42;20.98;;;4.20;99.90;;;;;;5036478;28;20233;-77
2021/11/29 07:22:31;;;;;;;29.10;18.27;;;4.20;99.90;;;;;;5036021;28;20273;-77
2021/11/29 07:25:01;;;;;;;34.33;18.92;;;4.20;99.90;;;;;;5035559;28;20215;-77
2021/11/29 07:27:28;;;;;;;32.78;19.85;;;4.20;99.90;;;;;;5036093;28;20601;-77
2021/11/29 07:29:54;;;;;;;33.53;19.02;;;4.30;99.90;;;;;;5035866;28;20668;-77
2021/11/29 07:32:23;;;;;;;36.15;18.58;;;4.30;99.90;;;;;;5035732;28;20197;-77
2021/11/29 07:34:50;;;;;;;30.60;19.30;;;4.40;99.90;;;;;;5035710;28;20277;-77
2021/11/29 07:37:19;;;;;;;29.15;17.75;;;4.40;99.90;;;;;;5035434;28;20277;-77
2021/11/29 07:39:46;;;;;;;25.90;16.77;;;4.40;99.90;;;;;;5035593;28;20199;-77
2021/11/29 07:42:13;;;;;;;26.67;16.80;;;4.40;99.90;;;;;;5035390;28;20281;-77
2021/11/29 07:44:40;;;;;;;24.50;15.98;;;4.40;99.90;;;;;;5035221;28;20218;-77
2021/11/29 07:47:07;;;;;;;27.10;14.73;;;4.40;99.90;;;;;;5035326;28;20203;-77
2021/11/29 07:49:35;;;;;;;27.60;17.48;;;4.40;99.90;;;;;;5035131;28;20226;-77
2021/11/29 07:52:02;;;;;;;27.95;18.30;;;4.40;99.90;;;;;;5034557;28;20225;-77
2021/11/29 07:54:28;;;;;;;25.92;15.65;;;4.40;99.90;;;;;;5035042;28;20225;-77
2021/11/29 07:56:55;;;;;;;29.05;17.35;;;4.40;99.90;;;;;;5034902;28;20769;-77
2021/11/29 07:59:22;;;;;;;26.00;14.82;;;4.40;99.90;;;;;;5034882;28;20650;-77
2021/11/29 08:01:48;;;;;;;25.42;15.88;;;4.40;99.90;;;;;;5035210;28;20286;-77
2021/11/29 08:04:15;;;;;;;25.67;16.40;;;4.50;99.90;;;;;;5034715;28;20273;-77
2021/11/29 08:06:42;;;;;;;25.70;16.52;;;4.50;99.90;;;;;;5034877;28;20286;-77
2021/11/29 08:09:09;;;;;;;25.17;16.67;;;4.50;99.90;;;;;;5034925;28;20215;-77
2021/11/29 08:11:36;;;;;;;26.95;17.42;;;4.50;99.90;;;;;;5034817;28;20248;-77
2021/11/29 08:14:03;;;;;;;29.13;16.20;;;4.50;99.90;;;;;;5034690;28;20535;-77
2021/11/29 08:16:29;;;;;;;28.83;17.20;;;4.50;99.90;;;;;;5034662;28;20277;-77
2021/11/29 08:18:56;;;;;;;25.95;16.65;;;4.40;99.90;;;;;;5034443;28;20193;-77
2021/11/29 08:21:22;;;;;;;26.48;16.60;;;4.50;99.90;;;;;;5034571;28;20236;-77
2021/11/29 08:23:50;;;;;;;23.13;15.75;;;4.50;99.90;;;;;;5034618;28;20225;-77
2021/11/29 08:26:17;;;;;;;24.92;15.35;;;4.40;99.90;;;;;;5034461;28;20309;-77
2021/11/29 08:28:43;;;;;;;25.60;15.55;;;4.30;99.90;;;;;;5034386;28;20277;-77
2021/11/29 08:31:10;;;;;;;24.92;14.93;;;4.30;99.90;;;;;;5034370;28;20285;-77
2021/11/29 08:33:36;;;;;;;29.60;15.30;;;4.30;99.90;;;;;;5034215;28;20282;-77
2021/11/29 08:36:03;;;;;;;26.95;16.83;;;4.30;99.90;;;;;;5034589;28;20278;-77
2021/11/29 08:38:32;;;;;;;30.10;18.23;;;4.30;99.90;;;;;;5034342;28;20285;-77
2021/11/29 08:41:00;;;;;;;25.92;16.05;;;4.30;99.90;;;;;;5034324;28;20187;-77
2021/11/29 08:43:27;;;;;;;30.67;17.27;;;4.30;99.90;;;;;;5034013;28;20265;-77
2021/11/29 08:45:54;;;;;;;31.90;18.05;;;4.20;99.90;;;;;;5033986;28;20264;-77
2021/11/29 08:48:22;;;;;;;27.58;16.58;;;4.20;99.90;;;;;;5033810;28;20286;-77
2021/11/29 08:50:51;;;;;;;25.15;16.02;;;4.30;99.90;;;;;;5034174;28;20195;-77
2021/11/29 08:53:20;;;;;;;26.90;16.95;;;4.20;99.90;;;;;;5034059;28;20227;-77
2021/11/29 08:55:47;;;;;;;26.45;15.88;;;4.20;99.90;;;;;;5033805;28;20732;-77
2021/11/29 08:58:15;;;;;;;25.50;17.70;;;4.20;99.90;;;;;;5034338;28;20249;-77
2021/11/29 09:00:45;;;;;;;30.50;17.38;;;4.20;99.90;;;;;;5033630;28;20277;-77
2021/11/29 09:03:12;;;;;;;28.15;16.25;;;4.30;99.90;;;;;;5033245;28;20226;-77
2021/11/29 09:05:42;;;;;;;30.80;17.73;;;4.30;99.90;;;;;;5033721;28;20254;-77
2021/11/29 09:08:09;;;;;;;29.17;16.95;;;4.30;99.90;;;;;;5033834;28;20222;-77
2021/11/29 09:10:35;;;;;;;29.92;17.67;;;4.40;99.90;;;;;;5033412;28;20764;-77
2021/11/29 09:13:02;;;;;;;32.70;17.33;;;4.50;99.90;;;;;;5033483;28;20195;-77
2021/11/29 09:15:30;;;;;;;37.13;22.13;;;4.50;99.90;;;;;;5033465;28;20281;-77
2021/11/29 09:17:57;;;;;;;34.00;18.13;;;4.60;99.90;;;;;;5033582;28;20217;-77
2021/11/29 09:20:26;;;;;;;32.70;17.75;;;4.70;99.90;;;;;;5033444;28;20221;-77
2021/11/29 09:22:54;;;;;;;32.20;18.23;;;4.70;99.90;;;;;;5033435;28;20277;-77
2021/11/29 09:25:22;;;;;;;28.30;17.23;;;4.80;99.90;;;;;;5033349;28;20249;-77
2021/11/29 09:27:48;;;;;;;26.63;16.40;;;4.90;99.90;;;;;;5033329;28;20191;-77
2021/11/29 09:30:17;;;;;;;33.70;17.80;;;4.90;99.90;;;;;;5033150;28;20222;-77
2021/11/29 09:32:45;;;;;;;29.13;17.75;;;4.90;99.90;;;;;;5033229;28;20198;-77
2021/11/29 09:35:14;;;;;;;28.70;16.60;;;4.90;99.90;;;;;;5033300;28;20233;-77
2021/11/29 09:37:42;;;;;;;27.27;16.17;;;4.90;99.90;;;;;;5033552;28;20201;-77
2021/11/29 09:40:13;;;;;;;24.17;15.07;;;4.90;99.90;;;;;;5033012;28;20313;-77
2021/11/29 09:42:40;;;;;;;23.52;14.27;;;4.90;99.90;;;;;;5033213;28;20262;-77
2021/11/29 09:45:10;;;;;;;27.52;14.52;;;5.00;99.90;;;;;;5033068;28;20218;-77
2021/11/29 09:47:36;;;;;;;26.98;14.90;;;5.10;99.90;;;;;;5033122;28;20222;-77
2021/11/29 09:50:06;;;;;;;24.40;14.13;;;5.10;99.90;;;;;;5033040;28;20618;-77
2021/11/29 09:52:33;;;;;;;25.13;13.48;;;5.10;99.90;;;;;;5032965;28;20281;-77
2021/11/29 09:54:59;;;;;;;19.52;13.07;;;5.00;99.90;;;;;;5032779;28;20352;-77
2021/11/29 09:57:26;;;;;;;23.40;13.75;;;5.00;99.90;;;;;;5033140;28;20258;-77
2021/11/29 09:59:53;;;;;;;21.48;13.55;;;4.90;99.90;;;;;;5033162;28;20714;-77
2021/11/29 10:02:20;;;;;;;25.83;15.70;;;4.90;99.90;;;;;;5033105;28;20673;-77
2021/11/29 10:04:48;;;;;;;21.30;13.20;;;4.80;99.90;;;;;;5032809;28;20249;-77
2021/11/29 10:07:29;;;;;;;25.17;15.10;;;4.80;99.90;;;;;;5033017;28;20194;-77
2021/11/29 10:09:57;;;;;;;24.85;14.57;;;4.90;99.90;;;;;;5032993;28;20202;-77
2021/11/29 10:12:27;;;;;;;30.55;15.50;;;4.90;99.90;;;;;;5032846;28;20230;-78
2021/11/29 10:15:16;;;;;;;27.77;16.38;;;4.90;99.90;;;;;;5035526;28;20186;-77
2021/11/29 10:17:44;;;;;;;27.92;16.05;;;4.90;99.90;;;;;;5036809;28;20193;-77
2021/11/29 10:20:10;;;;;;;24.13;15.68;;;4.90;99.90;;;;;;5036985;28;20281;-77
2021/11/29 10:22:38;;;;;;;26.17;14.93;;;4.90;99.90;;;;;;5037028;28;20281;-77
2021/11/29 10:25:17;;;;;;;27.85;15.68;;;4.90;99.90;;;;;;5036749;28;20303;-77
2021/11/29 10:27:45;;;;;;;26.52;15.25;;;4.90;99.90;;;;;;5036819;28;20222;-77
2021/11/29 10:30:16;;;;;;;30.35;16.13;;;4.80;99.90;;;;;;5036532;28;20305;-77
2021/11/29 10:32:44;;;;;;;24.83;16.15;;;4.70;99.90;;;;;;5036998;28;20619;-77
2021/11/29 10:35:15;;;;;;;24.42;14.13;;;4.60;99.90;;;;;;5036732;28;20190;-77
2021/11/29 10:37:46;;;;;;;25.95;14.75;;;4.60;99.90;;;;;;5036646;28;20233;-78
2021/11/29 10:40:15;;;;;;;24.48;14.52;;;4.60;99.90;;;;;;5036511;28;20214;-77
2021/11/29 10:42:42;;;;;;;23.73;15.20;;;4.60;99.90;;;;;;5036224;28;20213;-77
2021/11/29 10:45:19;;;;;;;25.63;15.35;;;4.60;99.90;;;;;;5036588;28;20306;-77
2021/11/29 10:47:49;;;;;;;25.88;15.63;;;4.60;99.90;;;;;;5036533;28;20277;-77
2021/11/29 10:50:16;;;;;;;26.35;14.57;;;4.60;99.90;;;;;;5036352;28;20195;-77
2021/11/29 10:52:47;;;;;;;25.05;15.52;;;4.70;99.90;;;;;;5036302;28;20766;-77
2021/11/29 10:55:14;;;;;;;30.13;16.27;;;4.70;99.90;;;;;;5035893;28;20265;-77
2021/11/29 10:57:46;;;;;;;31.55;18.52;;;4.80;99.90;;;;;;5036338;28;20609;-77
2021/11/29 11:00:17;;;;;;;31.25;16.83;;;4.90;99.90;;;;;;5036180;28;20190;-77
2021/11/29 11:03:01;;;;;;;25.77;15.75;;;5.00;99.90;;;;;;5036188;28;20197;-77
2021/11/29 11:05:28;;;;;;;28.67;16.92;;;5.10;99.90;;;;;;5036148;28;20221;-77
2021/11/29 11:08:08;;;;;;;28.25;16.05;;;5.20;99.90;;;;;;5036019;28;20191;-77
2021/11/29 11:10:35;;;;;;;31.02;16.08;;;5.20;99.90;;;;;;5035948;28;20542;-77
2021/11/29 11:13:04;;;;;;;29.63;17.15;;;5.30;99.90;;;;;;5036002;28;20258;-77
2021/11/29 11:15:31;;;;;;;22.75;14.68;;;5.40;99.90;;;;;;5035761;28;20561;-77
2021/11/29 11:17:59;;;;;;;25.15;16.20;;;5.40;99.90;;;;;;5035646;28;20665;-77
2021/11/29 11:20:25;;;;;;;22.75;13.52;;;5.50;99.90;;;;;;5035491;28;20662;-77
2021/11/29 11:22:53;;;;;;;23.48;13.60;;;5.50;99.90;;;;;;5035610;28;20227;-77
2021/11/29 11:25:24;;;;;;;24.30;15.13;;;5.50;99.90;;;;;;5035095;28;20626;-77
2021/11/29 11:27:55;;;;;;;22.50;13.45;;;5.50;99.90;;;;;;5035757;28;20209;-77
2021/11/29 11:30:22;;;;;;;22.10;14.70;;;5.50;99.90;;;;;;5035445;28;20654;-77
2021/11/29 11:32:50;;;;;;;17.70;11.70;;;5.60;99.90;;;;;;5035482;28;20232;-77
2021/11/29 11:35:21;;;;;;;22.20;13.13;;;5.60;99.90;;;;;;5035581;28;20228;-77
2021/11/29 11:37:50;;;;;;;21.50;13.20;;;5.70;99.90;;;;;;5035738;28;20202;-77
2021/11/29 11:40:18;;;;;;;19.75;13.68;;;5.90;99.90;;;;;;5035453;28;20277;-77
2021/11/29 11:42:46;;;;;;;21.02;12.98;;;6.00;99.90;;;;;;5035221;28;20265;-77
2021/11/29 11:45:15;;;;;;;17.70;11.82;;;6.10;99.90;;;;;;5035339;28;20325;-77
2021/11/29 11:47:44;;;;;;;17.42;12.10;;;6.10;99.90;;;;;;5035461;28;20277;-77
2021/11/29 11:50:13;;;;;;;20.33;13.07;;;6.10;99.90;;;;;;5035340;28;20618;-77
2021/11/29 11:52:41;;;;;;;19.20;12.55;;;6.10;99.90;;;;;;5035190;28;20194;-77
2021/11/29 11:55:09;;;;;;;18.45;12.00;;;6.10;99.90;;;;;;5034935;28;20226;-77
2021/11/29 11:57:37;;;;;;;17.73;10.30;;;6.10;99.90;;;;;;5034994;28;20615;-77
2021/11/29 12:00:18;;;;;;;17.83;10.85;;;6.20;99.90;;;;;;5034956;28;20273;-77
2021/11/29 12:03:16;;;;;;;15.38;9.77;;;6.30;99.90;;;;;;5035172;28;20248;-77
2021/11/29 12:05:52;;;;;;;19.48;11.95;;;6.20;99.90;;;;;;5022523;28;20218;-77
2021/11/29 12:08:40;;;;;;;15.07;10.68;;;6.20;99.90;;;;;;5034801;28;20194;-77
2021/11/29 12:11:36;;;;;;;17.08;10.20;;;6.10;99.90;;;;;;5034878;28;20233;-77
2021/11/29 12:14:10;;;;;;;15.50;9.95;;;6.00;99.90;;;;;;5034814;28;20659;-77
2021/11/29 12:16:39;;;;;;;17.13;10.20;;;5.90;99.90;;;;;;5034741;28;20289;-77
2021/11/29 12:19:06;;;;;;;16.13;10.25;;;5.80;99.90;;;;;;5034769;28;20199;-78
2021/11/29 12:21:38;;;;;;;15.93;9.32;;;6.00;99.90;;;;;;5034896;28;20234;-77
2021/11/29 12:24:08;;;;;;;16.60;10.30;;;6.00;99.90;;;;;;5034886;28;20191;-77
2021/11/29 12:27:01;;;;;;;18.60;10.38;;;5.90;99.90;;;;;;5034394;28;20216;-78
2021/11/29 12:29:48;;;;;;;15.10;9.70;;;5.80;99.90;;;;;;5024465;28;20225;-77
2021/11/29 12:32:17;;;;;;;15.50;9.52;;;5.70;99.90;;;;;;5034488;28;20198;-78
2021/11/29 12:34:56;;;;;;;14.75;9.32;;;5.70;99.90;;;;;;5034456;28;20619;-79
2021/11/29 12:37:24;;;;;;;13.07;8.68;;;5.70;99.90;;;;;;5022746;28;20719;-78
2021/11/29 12:39:56;;;;;;;14.27;8.48;;;5.70;99.90;;;;;;5033699;28;20289;-78
2021/11/29 12:42:55;;;;;;;12.65;8.70;;;5.70;99.90;;;;;;5033587;28;20615;-78